Time;durP1;ratioP1;P1;durP2;ratioP2;P2;SDS_P1;SDS_P2;PMS_P1;PMS_P2;Temp;Humidity;BMP_temperature;BMP_pressure;BME280_temperature;BME280_humidity;BME280_pressure;Samples;Min_cycle;Max_cycle;Signal;HPM_P1;HPM_P2
2021/09/15 00:00:27;;;;;;;;;;;;;;;23.70;54.17;95598.78;1048947;28;1068;-59
2021/09/15 00:00:57;;;;;;;;;;;;;;;23.70;53.90;95599.53;1048971;28;1308;-59
2021/09/15 00:01:28;;;;;;;;;;;;;;;23.70;54.11;95604.06;1045102;28;1064;-59
2021/09/15 00:01:58;;;;;;;;;;;;;;;23.70;53.87;95604.84;1047868;28;1476;-59
2021/09/15 00:02:28;;;;;;;;;;;;;;;23.70;54.09;95606.72;1049132;28;1127;-58
2021/09/15 00:02:59;;;;;;;;;;;;;;;23.70;54.02;95604.84;1047632;28;1069;-59
2021/09/15 00:03:29;;;;;;;;;;;;;;;23.70;53.94;95599.53;1047989;28;2265;-57
2021/09/15 00:03:59;;;;;;;;;;;;;;;23.69;53.93;95605.16;1047978;28;1900;-59
2021/09/15 00:04:30;;;;;;;;;;;;;;;23.70;54.18;95606.72;1049142;28;1184;-59
2021/09/15 00:05:00;;;;;;;;;;;;;;;23.69;53.81;95603.28;1049230;28;1084;-60
2021/09/15 00:05:30;;;;;;;;;;;;;;;23.70;53.90;95593.50;1048867;28;1352;-59
2021/09/15 00:06:01;;;;;;;;;;;;;;;23.69;53.97;95608.59;1048952;28;1084;-58
2021/09/15 00:06:32;;;;;;;;;;;;;;;23.70;54.04;95604.84;1049205;28;1014;-57
2021/09/15 00:07:02;;;;;;;;;;;;;;;23.69;53.99;95600.66;1048902;28;1118;-59
2021/09/15 00:07:32;;;;;;;;;;;;;;;23.70;53.95;95598.78;1048864;28;1499;-57
2021/09/15 00:08:03;;;;;;;;;;;;;;;23.70;53.83;95601.44;1049088;28;1151;-60
2021/09/15 00:08:33;;;;;;;;;;;;;;;23.70;53.84;95599.53;1049195;28;1063;-57
2021/09/15 00:09:04;;;;;;;;;;;;;;;23.69;53.88;95598.00;1046406;28;2129;-58
2021/09/15 00:09:34;;;;;;;;;;;;;;;23.69;53.97;95598.00;1048046;28;1230;-59
2021/09/15 00:10:05;;;;;;;;;;;;;;;23.69;53.81;95598.00;1048793;28;1193;-59
2021/09/15 00:10:35;;;;;;;;;;;;;;;23.70;54.01;95598.78;1046319;28;1442;-59
2021/09/15 00:11:06;;;;;;;;;;;;;;;23.70;53.84;95599.53;1048555;28;1975;-58
2021/09/15 00:11:37;;;;;;;;;;;;;;;23.70;54.11;95598.78;1049419;28;1062;-59
2021/09/15 00:12:07;;;;;;;;;;;;;;;23.70;53.97;95598.78;1049197;28;1263;-58
2021/09/15 00:12:37;;;;;;;;;;;;;;;23.69;54.06;95598.00;1049144;28;1197;-58
2021/09/15 00:13:08;;;;;;;;;;;;;;;23.69;53.75;95590.06;1049107;28;1092;-58
2021/09/15 00:13:41;;;;;;;;;;;;;;;23.70;53.95;95596.13;1049448;28;1083;-57
2021/09/15 00:14:11;;;;;;;;;;;;;;;23.69;53.98;95586.63;1047045;28;1897;-58
2021/09/15 00:14:42;;;;;;;;;;;;;;;23.69;53.73;95592.69;1049462;28;1051;-57
2021/09/15 00:15:12;;;;;;;;;;;;;;;23.69;53.73;95590.06;1049005;28;1076;-58
2021/09/15 00:15:42;;;;;;;;;;;;;;;23.69;53.70;95587.41;1049230;28;1201;-57
2021/09/15 00:16:13;;;;;;;;;;;;;;;23.70;53.72;95594.25;1049302;28;1077;-58
2021/09/15 00:16:43;;;;;;;;;;;;;;;23.69;53.79;95590.06;1049291;28;1047;-58
2021/09/15 00:17:13;;;;;;;;;;;;;;;23.69;53.78;95592.69;1049180;28;1197;-57
2021/09/15 00:17:44;;;;;;;;;;;;;;;23.70;53.76;95594.25;1048118;28;1036;-60
2021/09/15 00:18:14;;;;;;;;;;;;;;;23.69;53.82;95576.81;1049290;28;1177;-55
2021/09/15 00:18:44;;;;;;;;;;;;;;;23.70;53.91;95588.19;1049420;28;1032;-57
2021/09/15 00:19:15;;;;;;;;;;;;;;;23.69;53.86;95581.31;1045259;28;2057;-54
2021/09/15 00:19:45;;;;;;;;;;;;;;;23.69;53.91;95592.69;1044715;28;1645;-56
2021/09/15 00:20:15;;;;;;;;;;;;;;;23.69;54.09;95590.06;1048962;28;1048;-59
2021/09/15 00:20:46;;;;;;;;;;;;;;;23.69;53.70;95581.31;1048800;28;1050;-57
2021/09/15 00:21:16;;;;;;;;;;;;;;;23.68;53.74;95583.19;1049090;28;1158;-57
2021/09/15 00:21:46;;;;;;;;;;;;;;;23.69;53.87;95582.13;1042121;28;1542;-57
2021/09/15 00:22:17;;;;;;;;;;;;;;;23.69;53.78;95584.75;1049080;28;1083;-58
2021/09/15 00:22:47;;;;;;;;;;;;;;;23.68;53.81;95580.53;1049078;28;1017;-58
2021/09/15 00:23:17;;;;;;;;;;;;;;;23.69;53.73;95584.75;1049273;28;1334;-58
2021/09/15 00:23:47;;;;;;;;;;;;;;;23.69;53.68;95582.13;1048605;28;1044;-58
2021/09/15 00:24:18;;;;;;;;;;;;;;;23.68;53.82;95577.88;1047730;28;2162;-59
2021/09/15 00:24:48;;;;;;;;;;;;;;;23.68;53.79;95580.53;1047625;28;1664;-60
2021/09/15 00:25:18;;;;;;;;;;;;;;;23.69;53.78;95581.31;1048851;28;1081;-59
2021/09/15 00:25:49;;;;;;;;;;;;;;;23.69;53.75;95574.19;1049127;28;1059;-57
2021/09/15 00:26:19;;;;;;;;;;;;;;;23.69;53.76;95576.81;1048909;28;1093;-57
2021/09/15 00:26:49;;;;;;;;;;;;;;;23.68;53.82;95580.53;1049339;28;1583;-58
2021/09/15 00:27:20;;;;;;;;;;;;;;;23.68;54.03;95580.53;1048866;28;1150;-59
2021/09/15 00:27:50;;;;;;;;;;;;;;;23.69;53.71;95582.13;1044141;28;2067;-58
2021/09/15 00:28:20;;;;;;;;;;;;;;;23.69;53.68;95578.69;1044756;28;1186;-59
2021/09/15 00:28:51;;;;;;;;;;;;;;;23.69;53.79;95573.38;1044894;28;1061;-57
2021/09/15 00:29:21;;;;;;;;;;;;;;;23.68;53.95;95569.94;1048902;28;1157;-58
2021/09/15 00:29:51;;;;;;;;;;;;;;;23.69;53.84;95579.47;1047664;28;2117;-59
2021/09/15 00:30:22;;;;;;;;;;;;;;;23.69;53.74;95571.53;1049264;28;1126;-59
2021/09/15 00:30:52;;;;;;;;;;;;;;;23.70;53.80;95575.72;1049187;28;1922;-57
2021/09/15 00:31:22;;;;;;;;;;;;;;;23.68;53.72;95572.59;1049107;28;1246;-57
2021/09/15 00:31:53;;;;;;;;;;;;;;;23.69;53.70;95568.09;1049095;28;1099;-59
2021/09/15 00:32:23;;;;;;;;;;;;;;;23.69;53.65;95578.69;1048962;28;1245;-58
2021/09/15 00:32:53;;;;;;;;;;;;;;;23.69;53.77;95568.09;1047643;28;1381;-57
2021/09/15 00:33:24;;;;;;;;;;;;;;;23.69;53.92;95571.53;1049004;28;1026;-58
2021/09/15 00:33:54;;;;;;;;;;;;;;;23.69;53.81;95581.31;1047884;28;1577;-59
2021/09/15 00:34:29;;;;;;;;;;;;;;;23.69;53.88;95574.19;1048321;28;1279;-58
2021/09/15 00:35:00;;;;;;;;;;;;;;;23.69;53.71;95576.81;1047265;28;2445;-57
2021/09/15 00:35:30;;;;;;;;;;;;;;;23.69;53.88;95570.75;1048945;28;1076;-57
2021/09/15 00:36:00;;;;;;;;;;;;;;;23.68;53.84;95569.94;1048597;28;1036;-59
2021/09/15 00:36:31;;;;;;;;;;;;;;;23.68;54.07;95577.88;1048868;28;1154;-59
2021/09/15 00:37:01;;;;;;;;;;;;;;;23.69;53.70;95571.53;1048683;28;1123;-59
2021/09/15 00:37:31;;;;;;;;;;;;;;;23.68;53.95;95572.59;1048837;28;1372;-60
2021/09/15 00:38:02;;;;;;;;;;;;;;;23.69;53.70;95565.44;1044515;28;1025;-58
2021/09/15 00:38:32;;;;;;;;;;;;;;;23.69;53.64;95570.75;1044656;28;1096;-59
2021/09/15 00:39:03;;;;;;;;;;;;;;;23.68;53.68;95562.00;1044855;28;1072;-58
2021/09/15 00:39:33;;;;;;;;;;;;;;;23.70;53.83;95572.31;1048455;28;2197;-60
2021/09/15 00:40:04;;;;;;;;;;;;;;;23.68;53.99;95567.31;1048423;28;1485;-58
2021/09/15 00:40:34;;;;;;;;;;;;;;;23.69;53.84;95560.16;1048837;28;1013;-59
2021/09/15 00:41:04;;;;;;;;;;;;;;;23.68;53.75;95567.31;1048831;28;1112;-59
2021/09/15 00:41:35;;;;;;;;;;;;;;;23.68;53.79;95567.31;1048942;28;1035;-58
2021/09/15 00:42:08;;;;;;;;;;;;;;;23.68;53.81;95564.66;1049273;28;1088;-59
2021/09/15 00:42:38;;;;;;;;;;;;;;;23.68;53.75;95567.31;1048019;28;1479;-59
2021/09/15 00:43:09;;;;;;;;;;;;;;;23.68;53.78;95555.97;1047481;28;873;-59
2021/09/15 00:43:56;;;;;;;;;;;;;;;23.67;53.79;95565.75;1049364;28;1107;-60
2021/09/15 00:44:26;;;;;;;;;;;;;;;23.68;53.99;95561.25;1047536;28;2591;-59
2021/09/15 00:44:56;;;;;;;;;;;;;;;23.67;53.96;95557.81;1047882;28;2484;-60
2021/09/15 00:45:27;;;;;;;;;;;;;;;23.69;53.83;95560.16;1049398;28;1068;-59
2021/09/15 00:45:58;;;;;;;;;;;;;;;23.68;53.99;95559.38;1049048;28;1149;-58
2021/09/15 00:46:29;;;;;;;;;;;;;;;23.68;53.83;95561.25;1049115;28;1110;-60
2021/09/15 00:46:59;;;;;;;;;;;;;;;23.68;53.81;95562.00;1049037;28;1048;-60
2021/09/15 00:47:29;;;;;;;;;;;;;;;23.68;53.84;95563.91;1048999;28;1390;-59
2021/09/15 00:48:00;;;;;;;;;;;;;;;23.68;53.79;95559.38;1047676;28;1547;-60
2021/09/15 00:48:30;;;;;;;;;;;;;;;23.68;53.90;95564.66;1049018;28;1061;-59
2021/09/15 00:49:01;;;;;;;;;;;;;;;23.68;53.82;95555.97;1048595;28;1088;-57
2021/09/15 00:49:31;;;;;;;;;;;;;;;23.68;54.04;95556.72;1049043;28;788;-57
2021/09/15 00:50:01;;;;;;;;;;;;;;;23.69;53.71;95560.16;1047584;28;2045;-58
2021/09/15 00:50:32;;;;;;;;;;;;;;;23.68;53.70;95561.25;1049323;28;1059;-59
2021/09/15 00:51:02;;;;;;;;;;;;;;;23.68;53.63;95559.38;1047642;28;1906;-58
2021/09/15 00:51:33;;;;;;;;;;;;;;;23.68;53.77;95555.97;1048037;28;1514;-56
2021/09/15 00:52:03;;;;;;;;;;;;;;;23.68;53.79;95558.59;1048814;28;1081;-60
2021/09/15 00:52:34;;;;;;;;;;;;;;;23.67;53.90;95560.47;1047473;28;2163;-60
2021/09/15 00:53:04;;;;;;;;;;;;;;;23.68;53.70;95559.38;1048255;28;1420;-59
2021/09/15 00:53:34;;;;;;;;;;;;;;;23.68;53.68;95561.25;1045028;28;1223;-60
2021/09/15 00:54:05;;;;;;;;;;;;;;;23.68;53.79;95564.66;1044546;28;1154;-59
2021/09/15 00:54:35;;;;;;;;;;;;;;;23.68;53.70;95564.66;1044457;28;1280;-59
2021/09/15 00:55:06;;;;;;;;;;;;;;;23.68;53.67;95564.66;1047559;28;2615;-60
2021/09/15 00:55:36;;;;;;;;;;;;;;;23.68;53.78;95567.31;1049062;28;1124;-59
2021/09/15 00:56:06;;;;;;;;;;;;;;;23.68;53.92;95567.31;1044605;28;1284;-60
2021/09/15 00:56:37;;;;;;;;;;;;;;;23.67;54.07;95571.03;1044753;28;1258;-60
2021/09/15 00:57:07;;;;;;;;;;;;;;;23.68;53.93;95569.94;1044495;28;1136;-59
2021/09/15 00:57:37;;;;;;;;;;;;;;;23.68;54.00;95569.19;1048664;28;788;-59
2021/09/15 00:58:08;;;;;;;;;;;;;;;23.68;53.93;95569.94;1047989;28;2162;-60
2021/09/15 00:58:38;;;;;;;;;;;;;;;23.68;53.76;95569.19;1045345;28;1485;-60
2021/09/15 00:59:09;;;;;;;;;;;;;;;23.68;53.75;95564.66;1048593;28;1060;-59
2021/09/15 00:59:39;;;;;;;;;;;;;;;23.67;53.99;95563.09;1048274;28;2166;-59
2021/09/15 01:00:10;;;;;;;;;;;;;;;23.68;53.68;95564.66;1047917;28;1986;-60
2021/09/15 01:00:40;;;;;;;;;;;;;;;23.68;53.68;95569.94;1045746;28;1507;-59
2021/09/15 01:01:11;;;;;;;;;;;;;;;23.69;53.89;95563.59;1048883;28;1075;-59
2021/09/15 01:01:41;;;;;;;;;;;;;;;23.68;53.82;95566.53;1049063;28;1472;-58
2021/09/15 01:02:11;;;;;;;;;;;;;;;23.69;53.91;95568.09;1048774;28;1052;-60
2021/09/15 01:02:42;;;;;;;;;;;;;;;23.68;53.70;95563.91;1047588;28;1021;-59
2021/09/15 01:03:12;;;;;;;;;;;;;;;23.68;53.97;95563.91;1048219;28;1185;-57
2021/09/15 01:03:43;;;;;;;;;;;;;;;23.68;53.68;95563.91;1044651;28;1694;-59
2021/09/15 01:04:13;;;;;;;;;;;;;;;23.68;53.77;95563.91;1044498;28;1276;-60
2021/09/15 01:04:44;;;;;;;;;;;;;;;23.68;53.72;95564.66;1043658;28;2226;-57
2021/09/15 01:05:14;;;;;;;;;;;;;;;23.68;53.93;95561.25;1047700;28;1004;-59
2021/09/15 01:05:45;;;;;;;;;;;;;;;23.69;53.96;95565.44;1049238;28;1103;-58
2021/09/15 01:06:15;;;;;;;;;;;;;;;23.68;53.88;95561.25;1049067;28;1071;-60
2021/09/15 01:06:45;;;;;;;;;;;;;;;23.68;53.81;95564.66;1048585;28;1450;-60
2021/09/15 01:07:16;;;;;;;;;;;;;;;23.68;53.72;95564.66;1044651;28;1143;-60
2021/09/15 01:07:47;;;;;;;;;;;;;;;23.67;53.76;95563.09;1044252;28;1041;-58
2021/09/15 01:08:17;;;;;;;;;;;;;;;23.67;53.79;95557.03;1040444;28;1462;-60
2021/09/15 01:09:06;;;;;;;;;;;;;;;23.68;53.75;95559.38;1046144;28;1549;-60
2021/09/15 01:09:56;;;;;;;;;;;;;;;23.68;53.82;95559.38;1045743;28;1994;-59
2021/09/15 01:10:29;;;;;;;;;;;;;;;23.68;53.96;95561.25;1054346;28;2414;-60
2021/09/15 01:11:00;;;;;;;;;;;;;;;23.67;53.78;95560.47;1051194;28;1980;-58
2021/09/15 01:11:35;;;;;;;;;;;;;;;23.67;53.80;95552.53;1044567;28;1295;-60
2021/09/15 01:12:06;;;;;;;;;;;;;;;23.66;53.64;95566.81;1042987;28;2434;-59
2021/09/15 01:12:36;;;;;;;;;;;;;;;23.67;54.07;95562.31;1036995;28;1002;-60
2021/09/15 01:13:07;;;;;;;;;;;;;;;23.68;53.75;95564.66;1037845;28;1066;-61
2021/09/15 01:13:38;;;;;;;;;;;;;;;23.67;53.82;95563.09;1040087;28;1358;-60
2021/09/15 01:14:28;;;;;;;;;;;;;;;23.67;53.64;95567.59;1038837;28;1446;-59
2021/09/15 01:15:05;;;;;;;;;;;;;;;23.67;53.91;95578.19;1042934;28;2176;-59
2021/09/15 01:15:35;;;;;;;;;;;;;;;23.67;53.93;95568.41;1048366;28;832;-60
2021/09/15 01:16:05;;;;;;;;;;;;;;;23.66;53.74;95563.41;1048620;28;1028;-60
2021/09/15 01:16:52;;;;;;;;;;;;;;;23.67;53.76;95578.97;1049043;28;1065;-59
2021/09/15 01:17:23;;;;;;;;;;;;;;;23.67;54.06;95567.59;1048674;28;1309;-57
2021/09/15 01:17:55;;;;;;;;;;;;;;;23.65;53.72;95581.16;1049287;28;980;-59
2021/09/15 01:18:40;;;;;;;;;;;;;;;23.66;53.71;95577.41;1046432;28;1481;-60
2021/09/15 01:19:30;;;;;;;;;;;;;;;23.67;53.94;95576.34;1051750;28;1813;-58
2021/09/15 01:20:01;;;;;;;;;;;;;;;23.67;53.96;95578.19;1047181;28;2127;-59
2021/09/15 01:20:37;;;;;;;;;;;;;;;23.67;53.82;95578.19;1044810;28;722;-59
2021/09/15 01:21:08;;;;;;;;;;;;;;;23.66;53.76;95577.41;1048117;28;1052;-60
2021/09/15 01:21:38;;;;;;;;;;;;;;;23.65;53.66;95570.56;1047892;28;1613;-60
2021/09/15 01:22:09;;;;;;;;;;;;;;;23.66;53.72;95569.47;1048438;28;1140;-60
2021/09/15 01:22:42;;;;;;;;;;;;;;;23.67;53.97;95575.56;1047385;28;1206;-60
2021/09/15 01:23:33;;;;;;;;;;;;;;;23.67;53.65;95580.84;1045372;28;1221;-60
2021/09/15 01:24:09;;;;;;;;;;;;;;;23.67;54.03;95573.69;1048168;28;1104;-59
2021/09/15 01:24:40;;;;;;;;;;;;;;;23.66;53.58;95577.41;1045150;28;2503;-57
2021/09/15 01:25:10;;;;;;;;;;;;;;;23.67;53.71;95570.25;1046964;28;1423;-57
2021/09/15 01:25:41;;;;;;;;;;;;;;;23.66;53.83;95576.66;1044480;28;1071;-59
2021/09/15 01:26:12;;;;;;;;;;;;;;;23.67;53.88;95570.25;1044073;28;1372;-59
2021/09/15 01:26:43;;;;;;;;;;;;;;;23.67;54.02;95572.91;1044782;28;1053;-59
2021/09/15 01:27:13;;;;;;;;;;;;;;;23.66;53.62;95577.41;1048904;28;1155;-60
2021/09/15 01:27:43;;;;;;;;;;;;;;;23.66;53.86;95577.41;1052340;28;1142;-60
2021/09/15 01:28:14;;;;;;;;;;;;;;;23.68;53.99;95569.19;1048857;28;1142;-59
2021/09/15 01:28:44;;;;;;;;;;;;;;;23.67;53.94;95565.75;1049046;28;1358;-59
2021/09/15 01:29:15;;;;;;;;;;;;;;;23.67;53.55;95571.03;1047786;28;2018;-58
2021/09/15 01:29:45;;;;;;;;;;;;;;;23.67;53.71;95563.09;1047757;28;1052;-59
2021/09/15 01:30:15;;;;;;;;;;;;;;;23.66;53.64;95561.53;1048566;28;1167;-59
2021/09/15 01:30:46;;;;;;;;;;;;;;;23.67;53.54;95557.03;1048153;28;1474;-59
2021/09/15 01:31:16;;;;;;;;;;;;;;;23.67;53.75;95562.31;1048393;28;1965;-59
2021/09/15 01:31:59;;;;;;;;;;;;;;;23.65;53.87;95554.69;1049059;28;1068;-60
2021/09/15 01:32:29;;;;;;;;;;;;;;;23.67;53.73;95559.66;1048285;28;1040;-58
2021/09/15 01:33:00;;;;;;;;;;;;;;;23.65;53.92;95554.69;1054782;28;1621;-60
2021/09/15 01:33:30;;;;;;;;;;;;;;;23.66;53.69;95556.22;1057177;28;1386;-60
2021/09/15 01:34:00;;;;;;;;;;;;;;;23.67;53.66;95554.38;1056562;28;1596;-60
2021/09/15 01:34:35;;;;;;;;;;;;;;;23.67;54.00;95554.38;1055169;28;2220;-58
2021/09/15 01:35:05;;;;;;;;;;;;;;;23.67;53.88;95549.88;1048912;28;1136;-57
2021/09/15 01:35:36;;;;;;;;;;;;;;;23.65;53.76;95544.09;1048398;28;1457;-56
2021/09/15 01:36:06;;;;;;;;;;;;;;;23.66;53.59;95545.66;1048204;28;1093;-59
2021/09/15 01:36:36;;;;;;;;;;;;;;;23.67;53.93;95549.09;1048632;28;721;-58
2021/09/15 01:37:08;;;;;;;;;;;;;;;23.67;53.62;95547.22;1047598;28;2183;-59
2021/09/15 01:37:38;;;;;;;;;;;;;;;23.67;53.79;95551.72;1046450;28;2431;-59
2021/09/15 01:38:09;;;;;;;;;;;;;;;23.67;53.63;95546.44;1048499;28;1079;-60
2021/09/15 01:38:39;;;;;;;;;;;;;;;23.65;53.65;95549.38;1046566;28;1768;-60
2021/09/15 01:39:09;;;;;;;;;;;;;;;23.66;53.94;95550.94;1048741;28;1143;-60
2021/09/15 01:39:40;;;;;;;;;;;;;;;23.65;53.60;95545.94;1045170;28;2416;-58
2021/09/15 01:40:11;;;;;;;;;;;;;;;23.64;53.63;95553.09;1048607;28;1154;-59
2021/09/15 01:40:41;;;;;;;;;;;;;;;23.65;53.67;95552.03;1048543;28;1063;-60
2021/09/15 01:41:11;;;;;;;;;;;;;;;23.65;53.92;95549.38;1048494;28;1076;-59
2021/09/15 01:41:42;;;;;;;;;;;;;;;23.65;53.59;95549.38;1049108;28;1091;-60
2021/09/15 01:42:12;;;;;;;;;;;;;;;23.67;53.73;95549.09;1050333;28;1072;-62
2021/09/15 01:42:42;;;;;;;;;;;;;;;23.66;53.79;95550.94;1049462;28;1125;-59
2021/09/15 01:43:13;;;;;;;;;;;;;;;23.65;53.83;95549.38;1048949;28;1139;-57
2021/09/15 01:43:52;;;;;;;;;;;;;;;23.67;53.68;95557.03;1048626;28;1084;-59
2021/09/15 01:44:32;;;;;;;;;;;;;;;23.67;53.64;95552.53;1046945;28;2271;-60
2021/09/15 01:45:06;;;;;;;;;;;;;;;23.66;53.84;95544.88;1047438;28;1066;-60
2021/09/15 01:45:36;;;;;;;;;;;;;;;23.65;53.87;95549.38;1045205;28;958;-58
2021/09/15 01:46:06;;;;;;;;;;;;;;;23.65;53.73;95546.75;1048720;28;1108;-58
2021/09/15 01:46:36;;;;;;;;;;;;;;;23.66;53.88;95548.28;1048671;28;812;-59
2021/09/15 01:47:07;;;;;;;;;;;;;;;23.65;53.70;95546.75;1048272;28;1139;-56
2021/09/15 01:47:38;;;;;;;;;;;;;;;23.65;53.86;95544.09;1043224;28;1081;-56
2021/09/15 01:48:09;;;;;;;;;;;;;;;23.65;53.70;95544.09;1043274;28;1623;-59
2021/09/15 01:48:39;;;;;;;;;;;;;;;23.65;53.71;95549.38;1047732;28;1100;-58
2021/09/15 01:49:09;;;;;;;;;;;;;;;23.66;53.59;95548.28;1048168;28;1112;-59
2021/09/15 01:49:40;;;;;;;;;;;;;;;23.65;53.87;95546.75;1047622;28;2200;-60
2021/09/15 01:50:10;;;;;;;;;;;;;;;23.66;53.69;95539.59;1048868;28;1111;-60
2021/09/15 01:50:41;;;;;;;;;;;;;;;23.65;53.88;95538.81;1048999;28;1121;-59
2021/09/15 01:51:11;;;;;;;;;;;;;;;23.66;53.55;95548.28;1048631;28;1906;-58
2021/09/15 01:51:41;;;;;;;;;;;;;;;23.65;53.57;95543.31;1047988;28;1709;-60
2021/09/15 01:52:12;;;;;;;;;;;;;;;23.66;53.69;95548.28;1048224;28;1546;-58
2021/09/15 01:52:42;;;;;;;;;;;;;;;23.64;53.70;95542.53;1044125;28;1115;-59
2021/09/15 01:53:13;;;;;;;;;;;;;;;23.65;53.72;95545.94;1043078;28;1615;-58
2021/09/15 01:53:43;;;;;;;;;;;;;;;23.65;53.81;95543.31;1044453;28;1247;-58
2021/09/15 01:54:14;;;;;;;;;;;;;;;23.65;53.66;95544.09;1048145;28;1442;-58
2021/09/15 01:54:44;;;;;;;;;;;;;;;23.66;53.57;95545.66;1046860;28;2417;-59
2021/09/15 01:55:27;;;;;;;;;;;;;;;23.66;53.65;95545.66;1048873;28;1158;-59
2021/09/15 01:55:57;;;;;;;;;;;;;;;23.65;53.97;95541.44;1047172;28;1045;-60
2021/09/15 01:56:28;;;;;;;;;;;;;;;23.64;53.64;95545.16;1048399;28;1465;-58
2021/09/15 01:56:58;;;;;;;;;;;;;;;23.65;53.67;95538.00;1048435;28;1123;-59
2021/09/15 01:57:28;;;;;;;;;;;;;;;23.64;53.59;95542.53;1048339;28;1154;-57
2021/09/15 01:57:59;;;;;;;;;;;;;;;23.66;53.77;95545.66;1048098;28;1190;-59
2021/09/15 01:58:29;;;;;;;;;;;;;;;23.65;53.85;95538.81;1049059;28;1084;-58
2021/09/15 01:58:59;;;;;;;;;;;;;;;23.65;53.81;95544.09;1048828;28;1063;-58
2021/09/15 01:59:29;;;;;;;;;;;;;;;23.65;53.98;95540.66;1047269;28;2097;-57
2021/09/15 02:00:00;;;;;;;;;;;;;;;23.65;53.85;95549.38;1044228;28;1848;-59
2021/09/15 02:00:30;;;;;;;;;;;;;;;23.65;53.59;95538.81;1048535;28;1067;-58
2021/09/15 02:01:00;;;;;;;;;;;;;;;23.64;53.75;95537.22;1048508;28;1064;-58
2021/09/15 02:01:31;;;;;;;;;;;;;;;23.65;53.65;95538.00;1047544;28;2057;-59
2021/09/15 02:02:01;;;;;;;;;;;;;;;23.65;53.88;95544.09;1050975;28;2943;-60
2021/09/15 02:02:31;;;;;;;;;;;;;;;23.66;53.91;95540.34;1044172;28;804;-58
2021/09/15 02:03:02;;;;;;;;;;;;;;;23.65;53.91;95544.09;1043332;28;1002;-59
2021/09/15 02:03:32;;;;;;;;;;;;;;;23.64;53.75;95534.59;1044461;28;1176;-59
2021/09/15 02:04:02;;;;;;;;;;;;;;;23.65;53.90;95538.81;1048387;28;1100;-58
2021/09/15 02:04:33;;;;;;;;;;;;;;;23.65;53.88;95544.09;1047099;28;2110;-58
2021/09/15 02:05:03;;;;;;;;;;;;;;;23.64;53.99;95539.88;1048798;28;1569;-58
2021/09/15 02:05:33;;;;;;;;;;;;;;;23.64;53.67;95539.88;1049035;28;1158;-59
2021/09/15 02:06:04;;;;;;;;;;;;;;;23.65;53.70;95538.81;1048149;28;1240;-60
2021/09/15 02:06:34;;;;;;;;;;;;;;;23.64;53.83;95541.75;1049023;28;1044;-60
2021/09/15 02:07:05;;;;;;;;;;;;;;;23.65;53.74;95549.38;1048838;28;1076;-57
2021/09/15 02:07:35;;;;;;;;;;;;;;;23.65;53.64;95548.59;1048344;28;1076;-56
2021/09/15 02:08:05;;;;;;;;;;;;;;;23.65;53.62;95543.31;1048246;28;1032;-58
2021/09/15 02:08:35;;;;;;;;;;;;;;;23.64;53.93;95545.16;1048675;28;1103;-59
2021/09/15 02:09:06;;;;;;;;;;;;;;;23.65;53.81;95540.66;1048569;28;1013;-59
2021/09/15 02:09:36;;;;;;;;;;;;;;;23.65;53.62;95544.09;1047561;28;2139;-57
2021/09/15 02:10:07;;;;;;;;;;;;;;;23.65;53.80;95545.94;1047706;28;1471;-58
2021/09/15 02:10:38;;;;;;;;;;;;;;;23.64;53.71;95542.53;1044834;28;799;-58
2021/09/15 02:11:08;;;;;;;;;;;;;;;23.65;53.81;95548.59;1048181;28;1963;-59
2021/09/15 02:11:38;;;;;;;;;;;;;;;23.64;53.88;95536.47;1048978;28;1103;-59
2021/09/15 02:12:09;;;;;;;;;;;;;;;23.65;53.51;95540.66;1048570;28;1016;-59
2021/09/15 02:12:42;;;;;;;;;;;;;;;23.64;53.85;95531.94;1048605;28;1040;-58
2021/09/15 02:13:12;;;;;;;;;;;;;;;23.64;53.59;95537.22;1048836;28;1213;-59
2021/09/15 02:13:43;;;;;;;;;;;;;;;23.64;53.77;95537.22;1048628;28;1079;-60
2021/09/15 02:14:13;;;;;;;;;;;;;;;23.63;53.85;95535.69;1048225;28;1220;-60
2021/09/15 02:14:43;;;;;;;;;;;;;;;23.65;53.90;95538.81;1046117;28;1994;-59
2021/09/15 02:15:14;;;;;;;;;;;;;;;23.65;53.63;95538.81;1048364;28;1465;-58
2021/09/15 02:15:44;;;;;;;;;;;;;;;23.64;53.65;95542.53;1048840;28;1039;-58
2021/09/15 02:16:14;;;;;;;;;;;;;;;23.65;53.55;95544.09;1048276;28;1103;-57
2021/09/15 02:16:45;;;;;;;;;;;;;;;23.63;53.61;95538.31;1048479;28;1068;-59
2021/09/15 02:17:15;;;;;;;;;;;;;;;23.64;53.84;95542.53;1052546;28;1207;-59
2021/09/15 02:17:45;;;;;;;;;;;;;;;23.64;53.63;95537.22;1051555;28;1083;-56
2021/09/15 02:18:16;;;;;;;;;;;;;;;23.65;53.65;95538.00;1056545;28;940;-59
2021/09/15 02:18:46;;;;;;;;;;;;;;;23.64;53.81;95537.22;1056934;28;1127;-60
2021/09/15 02:19:16;;;;;;;;;;;;;;;23.64;53.71;95539.88;1048065;28;1483;-57
2021/09/15 02:19:47;;;;;;;;;;;;;;;23.64;53.59;95541.75;1045841;28;2217;-60
2021/09/15 02:20:17;;;;;;;;;;;;;;;23.64;53.88;95542.53;1048556;28;1522;-58
2021/09/15 02:20:47;;;;;;;;;;;;;;;23.65;53.42;95541.44;1048757;28;1180;-57
2021/09/15 02:21:18;;;;;;;;;;;;;;;23.65;53.82;95538.00;1048807;28;1142;-61
2021/09/15 02:21:48;;;;;;;;;;;;;;;23.63;53.60;95535.69;1046853;28;1503;-61
2021/09/15 02:22:18;;;;;;;;;;;;;;;23.64;53.49;95537.22;1048775;28;1217;-60
2021/09/15 02:22:48;;;;;;;;;;;;;;;23.65;53.59;95538.00;1048389;28;1075;-57
2021/09/15 02:23:19;;;;;;;;;;;;;;;23.64;53.64;95539.13;1048874;28;1194;-59
2021/09/15 02:23:49;;;;;;;;;;;;;;;23.64;53.64;95534.59;1048841;28;1084;-60
2021/09/15 02:24:21;;;;;;;;;;;;;;;23.64;53.82;95537.22;1048625;28;1271;-59
2021/09/15 02:24:52;;;;;;;;;;;;;;;23.64;53.62;95534.59;1047138;28;2088;-60
2021/09/15 02:25:22;;;;;;;;;;;;;;;23.65;53.51;95538.81;1048659;28;1142;-59
2021/09/15 02:25:52;;;;;;;;;;;;;;;23.65;53.73;95536.16;1048818;28;1091;-58
2021/09/15 02:26:23;;;;;;;;;;;;;;;23.66;53.73;95540.34;1048790;28;1138;-59
2021/09/15 02:26:53;;;;;;;;;;;;;;;23.65;53.59;95535.38;1048373;28;1108;-58
2021/09/15 02:27:23;;;;;;;;;;;;;;;23.64;53.52;95533.81;1048448;28;2131;-59
2021/09/15 02:27:54;;;;;;;;;;;;;;;23.63;53.67;95530.38;1046134;28;2612;-59
2021/09/15 02:28:24;;;;;;;;;;;;;;;23.64;53.81;95531.16;1047696;28;2523;-59
2021/09/15 02:28:54;;;;;;;;;;;;;;;23.64;53.87;95525.88;1048561;28;1118;-57
2021/09/15 02:29:25;;;;;;;;;;;;;;;23.64;53.78;95531.94;1048976;28;970;-59
2021/09/15 02:29:55;;;;;;;;;;;;;;;23.64;53.73;95526.63;1047532;28;2508;-60
2021/09/15 02:30:25;;;;;;;;;;;;;;;23.64;53.53;95526.63;1048817;28;1564;-59
2021/09/15 02:30:56;;;;;;;;;;;;;;;23.63;53.47;95522.44;1046723;28;1968;-59
2021/09/15 02:31:26;;;;;;;;;;;;;;;23.63;53.66;95522.44;1048810;28;1132;-60
2021/09/15 02:31:56;;;;;;;;;;;;;;;23.64;53.79;95521.34;1048718;28;1123;-59
2021/09/15 02:32:26;;;;;;;;;;;;;;;23.64;53.79;95524.00;1049052;28;847;-60
2021/09/15 02:32:57;;;;;;;;;;;;;;;23.64;53.45;95521.34;1047130;28;1418;-60
2021/09/15 02:33:27;;;;;;;;;;;;;;;23.63;53.68;95519.78;1049006;28;804;-58
2021/09/15 02:33:57;;;;;;;;;;;;;;;23.63;53.50;95522.44;1047092;28;1386;-60
2021/09/15 02:34:28;;;;;;;;;;;;;;;23.63;53.59;95525.09;1048571;28;1205;-59
2021/09/15 02:34:58;;;;;;;;;;;;;;;23.64;53.50;95520.59;1047353;28;2493;-59
2021/09/15 02:35:28;;;;;;;;;;;;;;;23.63;53.74;95519.78;1048911;28;1135;-58
2021/09/15 02:35:58;;;;;;;;;;;;;;;23.63;53.60;95514.50;1048334;28;1409;-59
2021/09/15 02:36:29;;;;;;;;;;;;;;;23.63;53.76;95522.44;1048921;28;1175;-59
2021/09/15 02:36:59;;;;;;;;;;;;;;;23.64;53.75;95520.59;1048324;28;1041;-58
2021/09/15 02:37:30;;;;;;;;;;;;;;;23.63;53.71;95513.72;1048547;28;787;-56
2021/09/15 02:38:00;;;;;;;;;;;;;;;23.64;53.72;95520.59;1048185;28;997;-58
2021/09/15 02:38:30;;;;;;;;;;;;;;;23.63;53.66;95519.78;1048570;28;1080;-59
2021/09/15 02:39:01;;;;;;;;;;;;;;;23.63;53.59;95513.72;1047015;28;2154;-60
2021/09/15 02:39:31;;;;;;;;;;;;;;;23.63;53.78;95513.72;1046025;28;2061;-59
2021/09/15 02:40:02;;;;;;;;;;;;;;;23.64;53.75;95515.28;1047918;28;1674;-60
2021/09/15 02:40:32;;;;;;;;;;;;;;;23.63;53.50;95513.72;1048629;28;1046;-60
2021/09/15 02:41:03;;;;;;;;;;;;;;;23.63;53.51;95521.66;1048252;28;1037;-60
2021/09/15 02:41:33;;;;;;;;;;;;;;;23.63;53.81;95514.50;1048492;28;1167;-60
2021/09/15 02:42:03;;;;;;;;;;;;;;;23.63;53.53;95517.16;1048674;28;1147;-60
2021/09/15 02:42:34;;;;;;;;;;;;;;;23.63;53.61;95516.34;1051902;28;1101;-59
2021/09/15 02:43:04;;;;;;;;;;;;;;;23.63;53.79;95511.84;1048736;28;1067;-60
2021/09/15 02:43:34;;;;;;;;;;;;;;;23.63;53.54;95522.44;1048618;28;1209;-60
2021/09/15 02:44:05;;;;;;;;;;;;;;;23.62;53.69;95515.56;1048392;28;1040;-59
2021/09/15 02:44:35;;;;;;;;;;;;;;;23.63;53.59;95513.72;1047421;28;2111;-59